Butte, Montana
Current Conditions -  °F | °C
As of 9:53 PM on Friday 24 Oct 2014 (Local Time) from KBTM Reporting Station
Clear Clear  
Wind Chill: 32°   Ceiling: Unl
Heat Index: 37°   Visibility: 10mi
Dew Point: 36°   Wind: 6mph
Humidity: 96%   Direction: 160°SSE
Pressure: 30.11"   Gusts: NA
Location:  45.95°N, 112.5°W
Report Text: KBTM 250353Z AUTO 16005KT 10SM CLR 03/02 A3011 RMK AO2 SLP197 T00280022
Loading
Personal Weather Stations






























Interactive Weather Map
Tropical Storm Tracking
New forecast layout! Learn more

10-Day Weather Forecast

Advertisements
Track Severe Weather on mobile